createdAt,value
2023-02-08T00:00:00.812Z,41.17
2023-02-08T00:02:27.542Z,46.05
2023-02-08T00:04:54.268Z,46.58
2023-02-08T00:07:20.939Z,43.50
2023-02-08T00:09:47.679Z,46.47
2023-02-08T00:12:14.359Z,45.53
2023-02-08T00:14:41.125Z,42.17
2023-02-08T00:17:07.827Z,43.70
2023-02-08T00:19:34.581Z,37.05
2023-02-08T00:22:01.336Z,45.70
2023-02-08T00:24:28.131Z,42.22
2023-02-08T00:26:54.861Z,41.28
2023-02-08T00:29:21.613Z,40.50
2023-02-08T00:31:48.347Z,43.00
2023-02-08T00:34:15.517Z,39.47
2023-02-08T00:36:42.207Z,42.63
2023-02-08T00:39:08.933Z,53.83
2023-02-08T00:41:35.751Z,43.35
2023-02-08T00:44:02.511Z,45.65
2023-02-08T00:46:29.298Z,46.85
2023-02-08T00:48:56.029Z,37.92
2023-02-08T00:51:22.729Z,39.33
2023-02-08T00:53:49.757Z,43.58
2023-02-08T00:56:16.616Z,43.92
2023-02-08T00:58:43.370Z,38.95
2023-02-08T01:01:10.864Z,50.00
2023-02-08T01:03:37.638Z,41.28
2023-02-08T01:06:04.343Z,42.88
2023-02-08T01:08:32.463Z,48.60
2023-02-08T01:10:59.134Z,49.47
2023-02-08T01:13:25.841Z,41.22
2023-02-08T01:15:52.660Z,40.85
2023-02-08T01:18:19.389Z,41.17
2023-02-08T01:20:46.176Z,45.78
2023-02-08T01:23:12.829Z,45.78
2023-02-08T01:25:39.537Z,43.35
2023-02-08T01:28:06.311Z,47.03
2023-02-08T01:30:33.030Z,38.63
2023-02-08T01:32:59.722Z,44.10
2023-02-08T01:35:27.995Z,37.83
2023-02-08T01:37:54.674Z,47.40
2023-02-08T01:40:21.403Z,43.60
2023-02-08T01:42:48.065Z,37.03
2023-02-08T01:45:14.791Z,47.38
2023-02-08T01:47:41.534Z,46.95
2023-02-08T01:50:08.265Z,43.17
2023-02-08T01:52:34.980Z,45.08
2023-02-08T01:55:01.712Z,45.85
2023-02-08T01:57:28.405Z,41.30
2023-02-08T01:59:55.708Z,42.78
2023-02-08T02:02:22.391Z,41.53
2023-02-08T02:04:49.099Z,39.15
2023-02-08T02:07:15.822Z,42.15
2023-02-08T02:09:42.684Z,41.25
2023-02-08T02:12:09.377Z,44.63
2023-02-08T02:14:36.123Z,45.55
2023-02-08T02:17:02.906Z,41.90
2023-02-08T02:19:30.126Z,38.80
2023-02-08T02:21:56.948Z,43.97
2023-02-08T02:24:23.673Z,40.90
2023-02-08T02:26:50.676Z,38.80
2023-02-08T02:29:17.444Z,41.92
2023-02-08T02:31:44.148Z,42.08
2023-02-08T02:34:10.874Z,40.40
2023-02-08T02:36:37.590Z,42.60
2023-02-08T02:39:04.311Z,40.17
2023-02-08T02:41:49.929Z,36.40
2023-02-08T02:44:16.618Z,34.53
2023-02-08T02:46:43.422Z,41.38
2023-02-08T02:49:10.097Z,37.10
2023-02-08T02:51:36.764Z,38.42
2023-02-08T02:54:03.479Z,40.40
2023-02-08T02:56:30.141Z,36.83
2023-02-08T02:58:56.836Z,40.95
2023-02-08T03:01:26.539Z,39.10
2023-02-08T03:03:53.303Z,42.25
2023-02-08T03:06:19.991Z,37.67
2023-02-08T03:08:46.718Z,40.05
2023-02-08T03:11:13.438Z,33.28
2023-02-08T03:13:40.130Z,35.28
2023-02-08T03:16:06.846Z,37.33
2023-02-08T03:18:33.557Z,44.92
2023-02-08T03:21:00.218Z,41.53
2023-02-08T03:23:27.064Z,43.53
2023-02-08T03:25:53.759Z,44.08
2023-02-08T03:28:20.521Z,46.67
2023-02-08T03:30:50.067Z,46.05
2023-02-08T03:33:16.844Z,42.35
2023-02-08T03:35:43.514Z,46.47
2023-02-08T03:38:10.186Z,42.35
2023-02-08T03:40:36.846Z,51.25
2023-02-08T03:43:03.560Z,48.30
2023-02-08T03:45:30.235Z,45.03
2023-02-08T03:47:56.944Z,35.15
2023-02-08T03:50:23.666Z,35.05
2023-02-08T03:52:50.327Z,32.42
2023-02-08T03:55:17.092Z,34.13
2023-02-08T03:57:43.764Z,33.83
2023-02-08T04:00:10.456Z,33.90
2023-02-08T04:02:40.035Z,30.90
2023-02-08T04:05:06.823Z,33.42
2023-02-08T04:07:33.643Z,28.33
2023-02-08T04:10:00.338Z,30.33
2023-02-08T04:12:27.027Z,24.77
2023-02-08T04:14:53.738Z,25.98
2023-02-08T04:17:20.481Z,25.42
2023-02-08T04:19:47.161Z,31.98
2023-02-08T04:22:13.873Z,28.55
2023-02-08T04:24:41.079Z,28.65
2023-02-08T04:27:07.856Z,26.25
2023-02-08T04:29:34.689Z,30.17
2023-02-08T04:32:01.480Z,24.23
2023-02-08T04:34:28.147Z,24.20
2023-02-08T04:36:54.924Z,28.45
2023-02-08T04:39:21.623Z,24.45
2023-02-08T04:41:48.416Z,26.73
2023-02-08T04:44:15.142Z,23.05
2023-02-08T04:46:41.849Z,24.45
2023-02-08T04:49:08.569Z,21.25
2023-02-08T04:51:35.291Z,23.50
2023-02-08T04:54:02.028Z,25.10
2023-02-08T04:56:28.750Z,24.40
2023-02-08T04:58:55.421Z,21.63
2023-02-08T05:01:22.132Z,23.48
2023-02-08T05:03:49.174Z,24.30
2023-02-08T05:06:15.870Z,25.02
2023-02-08T05:08:42.596Z,23.27
2023-02-08T05:11:09.301Z,20.58
2023-02-08T05:13:35.959Z,21.25
2023-02-08T05:16:02.784Z,25.42
2023-02-08T05:18:29.521Z,21.15
2023-02-08T05:20:56.221Z,22.02
2023-02-08T05:23:22.932Z,22.40
2023-02-08T05:25:49.606Z,19.30
2023-02-08T05:28:16.353Z,23.45
2023-02-08T05:30:43.338Z,24.40
2023-02-08T05:33:10.069Z,19.83
2023-02-08T05:35:36.789Z,17.25
2023-02-08T05:38:03.474Z,26.50
2023-02-08T05:40:30.143Z,17.55
2023-02-08T05:42:56.873Z,22.13
2023-02-08T05:45:23.580Z,19.80
2023-02-08T05:47:50.432Z,14.25
2023-02-08T05:50:17.162Z,18.45
2023-02-08T05:52:43.884Z,20.42
2023-02-08T05:55:10.700Z,16.95
2023-02-08T05:57:37.448Z,20.48
2023-02-08T06:00:04.289Z,21.65
2023-02-08T06:02:30.996Z,20.75
2023-02-08T06:04:57.735Z,21.25
2023-02-08T06:07:24.441Z,23.23
2023-02-08T06:09:51.305Z,19.55
2023-02-08T06:12:17.981Z,17.98
2023-02-08T06:14:45.016Z,21.63
2023-02-08T06:17:11.753Z,19.35
2023-02-08T06:19:38.445Z,18.55
2023-02-08T06:22:05.125Z,21.15
2023-02-08T06:24:31.925Z,19.17
2023-02-08T06:26:58.660Z,18.23
2023-02-08T06:29:25.395Z,18.95
2023-02-08T06:31:52.179Z,19.10
2023-02-08T06:34:18.928Z,16.38
2023-02-08T06:36:45.815Z,20.10
2023-02-08T06:39:12.524Z,18.17
2023-02-08T06:41:39.207Z,19.52
2023-02-08T06:44:05.948Z,15.43
2023-02-08T06:46:32.627Z,17.80
2023-02-08T06:49:00.450Z,17.95
2023-02-08T06:51:27.215Z,18.45
2023-02-08T06:53:54.019Z,17.65
2023-02-08T06:56:20.728Z,15.68
2023-02-08T06:58:47.470Z,18.33
2023-02-08T07:01:14.245Z,19.02
2023-02-08T07:03:40.986Z,17.98
2023-02-08T07:06:07.746Z,20.15
2023-02-08T07:08:34.549Z,19.35
2023-02-08T07:11:01.253Z,18.75
2023-02-08T07:13:28.010Z,16.30
2023-02-08T07:15:54.726Z,19.35
2023-02-08T07:18:21.433Z,20.88
2023-02-08T07:20:48.164Z,17.60
2023-02-08T07:23:14.870Z,19.10
2023-02-08T07:25:41.576Z,19.02
2023-02-08T07:28:08.275Z,15.13
2023-02-08T07:30:35.098Z,21.73
2023-02-08T07:33:01.835Z,18.35
2023-02-08T07:35:28.520Z,18.92
2023-02-08T07:37:55.455Z,19.75
2023-02-08T07:40:22.187Z,19.38
2023-02-08T07:42:48.923Z,18.00
2023-02-08T07:45:25.950Z,23.00
2023-02-08T07:47:52.667Z,20.75
2023-02-08T07:50:19.388Z,20.23
2023-02-08T07:52:47.506Z,24.58
2023-02-08T07:55:17.277Z,23.10
2023-02-08T07:57:44.110Z,19.92
2023-02-08T08:00:10.884Z,20.98
2023-02-08T08:02:40.155Z,24.38
2023-02-08T08:05:06.936Z,24.80
2023-02-08T08:07:33.597Z,25.08
2023-02-08T08:10:00.392Z,21.15
2023-02-08T08:12:27.075Z,25.42
2023-02-08T08:14:53.790Z,21.20
2023-02-08T08:17:20.533Z,29.77
2023-02-08T08:19:47.364Z,29.67
2023-02-08T08:22:14.017Z,25.65
2023-02-08T08:24:40.722Z,40.38
2023-02-08T08:27:07.397Z,44.80
2023-02-08T08:29:34.106Z,33.85
2023-02-08T08:32:00.828Z,33.83
2023-02-08T08:34:30.976Z,54.45
2023-02-08T08:36:57.793Z,32.13
2023-02-08T08:39:24.576Z,28.33
2023-02-08T08:41:51.526Z,60.70
2023-02-08T08:44:18.467Z,120.35
2023-02-08T08:46:45.410Z,28.23
2023-02-08T08:49:12.409Z,26.52
2023-02-08T08:51:39.385Z,25.52
2023-02-08T08:54:06.468Z,26.67
2023-02-08T08:56:33.628Z,27.27
2023-02-08T08:59:00.507Z,27.60
2023-02-08T09:01:27.529Z,24.88
2023-02-08T09:03:55.077Z,30.45
2023-02-08T09:06:21.862Z,32.22
2023-02-08T09:08:50.832Z,30.83
2023-02-08T09:11:18.882Z,28.52
2023-02-08T09:13:45.690Z,33.67
2023-02-08T09:16:12.622Z,35.30
2023-02-08T09:18:39.610Z,29.23
2023-02-08T09:21:06.475Z,30.85
2023-02-08T09:23:33.333Z,31.20
2023-02-08T09:26:00.107Z,27.98
2023-02-08T09:28:27.423Z,32.60
2023-02-08T09:30:54.332Z,34.10
2023-02-08T09:33:21.058Z,35.47
2023-02-08T09:35:49.551Z,40.60
2023-02-08T09:38:16.653Z,61.42
2023-02-08T09:40:44.374Z,68.70
2023-02-08T09:43:11.631Z,64.03
2023-02-08T09:45:43.055Z,51.90
2023-02-08T09:48:15.461Z,41.90
2023-02-08T09:50:42.743Z,32.13
2023-02-08T09:53:09.743Z,41.05
2023-02-08T09:55:36.477Z,32.30
2023-02-08T09:58:03.284Z,35.08
2023-02-08T10:00:30.038Z,39.47
2023-02-08T10:02:56.819Z,41.33
2023-02-08T10:05:23.558Z,41.42
2023-02-08T10:07:50.260Z,38.22
2023-02-08T10:10:17.094Z,42.88
2023-02-08T10:12:43.841Z,41.10
2023-02-08T10:15:10.546Z,39.28
2023-02-08T10:17:37.248Z,38.95
2023-02-08T10:20:04.014Z,44.05
2023-02-08T10:22:30.811Z,39.80
2023-02-08T10:24:57.588Z,42.88
2023-02-08T10:27:24.260Z,37.92
2023-02-08T10:29:50.987Z,51.58
2023-02-08T10:32:17.726Z,43.60
2023-02-08T10:34:44.750Z,45.28
2023-02-08T10:37:11.456Z,41.33
2023-02-08T10:39:38.206Z,41.30
2023-02-08T10:42:04.932Z,40.70
2023-02-08T10:44:31.632Z,44.00
2023-02-08T10:46:58.412Z,43.25
2023-02-08T10:49:25.116Z,42.17
2023-02-08T10:51:51.875Z,50.70
2023-02-08T10:54:18.624Z,45.38
2023-02-08T10:56:45.356Z,47.20
2023-02-08T10:59:12.065Z,48.15
2023-02-08T11:01:38.726Z,45.72
2023-02-08T11:04:05.549Z,46.40
2023-02-08T11:06:32.324Z,51.17
2023-02-08T11:08:59.223Z,43.10
2023-02-08T11:11:27.195Z,48.78
2023-02-08T11:13:53.938Z,42.22
2023-02-08T11:16:20.658Z,46.45
2023-02-08T11:18:47.381Z,45.95
2023-02-08T11:21:14.058Z,42.17
2023-02-08T11:23:40.807Z,44.22
2023-02-08T11:26:07.498Z,43.67
2023-02-08T11:28:34.212Z,46.60
2023-02-08T11:31:01.093Z,42.95
2023-02-08T11:33:27.975Z,40.08
2023-02-08T11:35:54.665Z,36.88
2023-02-08T11:38:27.389Z,37.85
2023-02-08T11:40:55.164Z,40.78
2023-02-08T11:43:21.864Z,38.63
2023-02-08T11:45:48.626Z,35.65
2023-02-08T11:48:15.355Z,28.08
2023-02-08T11:50:42.103Z,26.88
2023-02-08T11:53:08.793Z,32.20
2023-02-08T11:55:35.561Z,32.90
2023-02-08T11:58:02.339Z,30.42
2023-02-08T12:00:29.079Z,34.88
2023-02-08T12:02:55.850Z,32.50
2023-02-08T12:05:22.560Z,29.75
2023-02-08T12:07:49.342Z,27.25
2023-02-08T12:10:16.053Z,61.25
2023-02-08T12:12:42.821Z,30.60
2023-02-08T12:15:09.532Z,21.90
2023-02-08T12:17:36.206Z,24.70
2023-02-08T12:20:02.876Z,27.23
2023-02-08T12:22:29.593Z,25.33
2023-02-08T12:24:56.363Z,36.95
2023-02-08T12:27:27.445Z,36.40
2023-02-08T12:29:54.383Z,27.33
2023-02-08T12:32:21.251Z,27.67
2023-02-08T12:34:47.975Z,64.90
2023-02-08T12:37:33.296Z,33.35
2023-02-08T12:40:18.642Z,32.45
2023-02-08T12:42:45.499Z,32.53
2023-02-08T12:45:15.275Z,35.75
2023-02-08T12:47:49.258Z,31.25
2023-02-08T12:50:26.905Z,65.18
2023-02-08T12:52:55.176Z,31.05
2023-02-08T12:55:21.999Z,30.27
2023-02-08T12:57:49.147Z,34.83
2023-02-08T13:00:15.909Z,28.33
2023-02-08T13:02:44.671Z,26.42
2023-02-08T13:05:11.458Z,22.65
2023-02-08T13:07:38.170Z,33.75
2023-02-08T13:10:04.882Z,32.45
2023-02-08T13:12:31.620Z,32.40
2023-02-08T13:14:58.350Z,26.63
2023-02-08T13:17:25.081Z,35.97
2023-02-08T13:19:59.632Z,23.80
2023-02-08T13:22:27.131Z,25.25
2023-02-08T13:25:06.272Z,29.15
2023-02-08T13:27:33.984Z,26.20
2023-02-08T13:30:00.889Z,26.27
2023-02-08T13:32:29.705Z,28.33
2023-02-08T13:34:56.396Z,28.08
2023-02-08T13:37:25.670Z,33.35
2023-02-08T13:39:53.344Z,30.75
2023-02-08T13:42:20.048Z,30.67
2023-02-08T13:44:46.825Z,28.42
2023-02-08T13:47:13.554Z,29.08
2023-02-08T13:49:40.748Z,34.15
2023-02-08T13:52:07.519Z,27.38
2023-02-08T13:54:34.222Z,42.67
2023-02-08T13:57:00.919Z,30.58
2023-02-08T13:59:27.627Z,36.28
2023-02-08T14:01:54.370Z,28.90
2023-02-08T14:04:21.224Z,43.42
2023-02-08T14:06:48.042Z,36.90
2023-02-08T14:09:14.763Z,31.02
2023-02-08T14:11:42.760Z,38.13
2023-02-08T14:14:09.506Z,30.63
2023-02-08T14:16:36.422Z,34.08
2023-02-08T14:19:03.123Z,34.22
2023-02-08T14:21:29.824Z,31.52
2023-02-08T14:23:56.623Z,34.78
2023-02-08T14:26:24.276Z,30.00
2023-02-08T14:28:51.059Z,36.08
2023-02-08T14:31:17.824Z,35.08
2023-02-08T14:33:44.577Z,38.47
2023-02-08T14:36:11.275Z,32.20
2023-02-08T14:38:37.953Z,31.38
2023-02-08T14:41:04.651Z,30.17
2023-02-08T14:43:31.441Z,28.95
2023-02-08T14:45:58.153Z,30.52
2023-02-08T14:48:24.851Z,25.58
2023-02-08T14:50:51.674Z,28.58
2023-02-08T14:53:18.400Z,24.85
2023-02-08T14:55:45.335Z,25.15
2023-02-08T14:58:12.404Z,27.73
2023-02-08T15:00:39.250Z,26.45
2023-02-08T15:03:05.970Z,25.52
2023-02-08T15:05:32.730Z,25.42
2023-02-08T15:07:59.478Z,25.58
2023-02-08T15:10:26.270Z,24.52
2023-02-08T15:12:53.044Z,21.38
2023-02-08T15:15:19.797Z,16.95
2023-02-08T15:17:47.659Z,17.77
2023-02-08T15:20:14.501Z,18.77
2023-02-08T15:22:41.242Z,19.15
2023-02-08T15:25:07.999Z,32.03
2023-02-08T15:27:34.796Z,26.05
2023-02-08T15:30:01.540Z,20.83
2023-02-08T15:32:28.281Z,22.55
2023-02-08T15:34:55.069Z,24.88
2023-02-08T15:37:21.854Z,25.05
2023-02-08T15:39:48.565Z,21.48
2023-02-08T15:42:15.262Z,36.67
2023-02-08T15:44:41.990Z,28.13
2023-02-08T15:47:08.721Z,20.08
2023-02-08T15:49:35.364Z,22.27
2023-02-08T15:52:02.115Z,20.85
2023-02-08T15:54:28.901Z,22.90
2023-02-08T15:56:55.640Z,24.70
2023-02-08T15:59:22.375Z,22.90
2023-02-08T16:01:49.087Z,22.65
2023-02-08T16:04:16.069Z,25.10
2023-02-08T16:06:42.786Z,23.65
2023-02-08T16:09:09.549Z,25.88
2023-02-08T16:11:36.225Z,22.90
2023-02-08T16:14:02.955Z,24.92
2023-02-08T16:16:29.806Z,26.02
2023-02-08T16:18:58.462Z,27.38
2023-02-08T16:21:25.194Z,22.27
2023-02-08T16:23:52.107Z,28.88
2023-02-08T16:26:18.928Z,19.83
2023-02-08T16:28:45.845Z,33.28
2023-02-08T16:31:12.713Z,25.70
2023-02-08T16:33:39.668Z,22.25
2023-02-08T16:36:06.417Z,26.27
2023-02-08T16:38:33.918Z,23.05
2023-02-08T16:41:12.136Z,28.52
2023-02-08T16:43:43.592Z,27.95
2023-02-08T16:46:10.396Z,35.42
2023-02-08T16:48:37.162Z,25.92
2023-02-08T16:51:03.896Z,27.67
2023-02-08T16:53:41.380Z,29.50
2023-02-08T16:56:08.569Z,23.58
2023-02-08T16:58:35.341Z,36.47
2023-02-08T17:01:02.122Z,27.63
2023-02-08T17:03:30.239Z,29.17
2023-02-08T17:05:56.997Z,27.02
2023-02-08T17:08:23.710Z,25.38
2023-02-08T17:10:52.705Z,26.67
2023-02-08T17:13:21.139Z,30.25
2023-02-08T17:15:48.266Z,30.73
2023-02-08T17:18:15.113Z,34.60
2023-02-08T17:20:41.888Z,28.48
2023-02-08T17:23:10.471Z,30.50
2023-02-08T17:25:37.145Z,38.25
2023-02-08T17:28:03.953Z,37.47
2023-02-08T17:30:30.750Z,32.88
2023-02-08T17:32:57.563Z,38.65
2023-02-08T17:35:24.310Z,34.40
2023-02-08T17:37:53.142Z,30.77
2023-02-08T17:40:19.841Z,25.48
2023-02-08T17:42:47.720Z,26.33
2023-02-08T17:45:14.475Z,29.23
2023-02-08T17:47:42.513Z,24.45
2023-02-08T17:50:09.524Z,24.88
2023-02-08T17:52:36.699Z,23.42
2023-02-08T17:55:03.517Z,22.98
2023-02-08T17:57:30.536Z,23.95
2023-02-08T17:59:57.269Z,22.73
2023-02-08T18:02:24.048Z,22.95
2023-02-08T18:04:50.786Z,21.27
2023-02-08T18:07:17.564Z,22.58
2023-02-08T18:09:44.292Z,21.42
2023-02-08T18:12:11.078Z,22.88
2023-02-08T18:14:39.163Z,19.33
2023-02-08T18:17:05.878Z,20.55
2023-02-08T18:19:33.056Z,21.00
2023-02-08T18:22:03.672Z,18.77
2023-02-08T18:24:30.950Z,18.02
2023-02-08T18:26:59.578Z,19.00
2023-02-08T18:29:26.555Z,20.92
2023-02-08T18:31:53.422Z,22.83
2023-02-08T18:34:20.304Z,18.73
2023-02-08T18:36:47.019Z,20.55
2023-02-08T18:39:23.037Z,30.55
2023-02-08T18:41:50.192Z,24.02
2023-02-08T18:44:16.870Z,27.30
2023-02-08T18:46:43.615Z,21.48
2023-02-08T18:49:10.320Z,25.25
2023-02-08T18:51:36.987Z,29.10
2023-02-08T18:54:03.790Z,29.05
2023-02-08T18:56:32.405Z,33.75
2023-02-08T18:59:00.691Z,38.97
2023-02-08T19:01:27.409Z,33.90
2023-02-08T19:03:54.274Z,27.75
2023-02-08T19:06:22.466Z,32.22
2023-02-08T19:08:51.496Z,21.98
2023-02-08T19:11:18.195Z,26.00
2023-02-08T19:13:44.982Z,30.30
2023-02-08T19:16:11.853Z,30.48
2023-02-08T19:18:38.672Z,29.17
2023-02-08T19:21:05.503Z,28.45
2023-02-08T19:23:32.282Z,27.95
2023-02-08T19:25:59.024Z,26.40
2023-02-08T19:28:26.073Z,32.22
2023-02-08T19:30:53.014Z,35.83
2023-02-08T19:33:19.769Z,29.95
2023-02-08T19:35:46.634Z,30.50
2023-02-08T19:38:13.563Z,34.88
2023-02-08T19:40:40.473Z,43.67
2023-02-08T19:43:07.272Z,43.40
2023-02-08T19:45:33.987Z,32.63
2023-02-08T19:48:00.736Z,39.17
2023-02-08T19:50:27.441Z,37.35
2023-02-08T19:52:54.169Z,34.38
2023-02-08T19:55:22.079Z,43.25
2023-02-08T19:57:48.764Z,36.33
2023-02-08T20:00:23.542Z,42.63
2023-02-08T20:02:50.964Z,42.00
2023-02-08T20:05:17.633Z,37.30
2023-02-08T20:07:44.318Z,31.73
2023-02-08T20:10:11.149Z,37.45
2023-02-08T20:12:37.865Z,34.42
2023-02-08T20:15:04.521Z,36.67
2023-02-08T20:17:31.236Z,42.00
2023-02-08T20:19:57.996Z,42.72
2023-02-08T20:22:24.734Z,39.22
2023-02-08T20:24:51.549Z,41.17
2023-02-08T20:27:18.343Z,42.28
2023-02-08T20:29:45.089Z,38.45
2023-02-08T20:32:11.898Z,39.22
2023-02-08T20:34:40.996Z,43.15
2023-02-08T20:37:14.000Z,38.83
2023-02-08T20:39:40.679Z,38.35
2023-02-08T20:42:07.440Z,44.78
2023-02-08T20:44:34.314Z,41.25
2023-02-08T20:47:01.101Z,53.17
2023-02-08T20:49:27.912Z,42.53
2023-02-08T20:51:54.748Z,46.53
2023-02-08T20:54:23.948Z,44.38
2023-02-08T20:56:50.693Z,46.85
2023-02-08T20:59:17.473Z,47.60
2023-02-08T21:01:46.398Z,51.83
2023-02-08T21:04:13.344Z,53.28
2023-02-08T21:06:40.123Z,57.50
2023-02-08T21:09:07.000Z,54.28
2023-02-08T21:11:33.895Z,55.50
2023-02-08T21:14:00.645Z,50.63
2023-02-08T21:16:27.420Z,44.97
2023-02-08T21:18:54.207Z,48.90
2023-02-08T21:21:20.938Z,42.72
2023-02-08T21:23:47.658Z,51.67
2023-02-08T21:26:14.376Z,40.67
2023-02-08T21:28:41.265Z,39.20
2023-02-08T21:31:08.103Z,39.53
2023-02-08T21:33:34.937Z,40.20
2023-02-08T21:36:01.733Z,34.65
2023-02-08T21:38:28.487Z,36.40
2023-02-08T21:40:55.155Z,37.20
2023-02-08T21:43:21.872Z,44.55
2023-02-08T21:45:48.696Z,40.72
2023-02-08T21:48:15.405Z,40.40
2023-02-08T21:51:00.980Z,35.85
2023-02-08T21:53:46.603Z,38.72
2023-02-08T21:56:13.329Z,36.40
2023-02-08T21:58:40.161Z,34.03
2023-02-08T22:01:06.939Z,35.65
2023-02-08T22:03:34.490Z,34.15
2023-02-08T22:06:01.185Z,30.85
2023-02-08T22:08:28.095Z,32.00
2023-02-08T22:10:58.521Z,35.00
2023-02-08T22:13:25.357Z,33.17
2023-02-08T22:15:52.107Z,31.05
2023-02-08T22:18:19.014Z,31.60
2023-02-08T22:20:46.000Z,31.23
2023-02-08T22:23:12.955Z,35.95
2023-02-08T22:25:39.819Z,31.83
2023-02-08T22:28:08.253Z,35.83
2023-02-08T22:30:35.146Z,34.85
2023-02-08T22:33:01.895Z,43.53
2023-02-08T22:35:28.621Z,36.08
2023-02-08T22:37:55.544Z,36.05
2023-02-08T22:40:22.312Z,37.25
2023-02-08T22:42:49.045Z,34.92
2023-02-08T22:45:15.877Z,34.53
2023-02-08T22:47:42.583Z,37.30
2023-02-08T22:50:09.329Z,34.10
2023-02-08T22:52:36.142Z,43.13
2023-02-08T22:55:04.174Z,34.95
2023-02-08T22:57:30.947Z,38.13
2023-02-08T22:59:57.709Z,36.17
2023-02-08T23:02:24.496Z,34.38
2023-02-08T23:04:51.296Z,35.05
2023-02-08T23:07:18.032Z,37.15
2023-02-08T23:09:44.762Z,36.03
2023-02-08T23:12:11.574Z,39.15
2023-02-08T23:14:38.281Z,36.88
2023-02-08T23:17:05.015Z,33.30
2023-02-08T23:19:31.783Z,33.75
2023-02-08T23:21:58.486Z,33.47
2023-02-08T23:24:25.205Z,39.88
2023-02-08T23:26:52.012Z,38.00
2023-02-08T23:29:18.709Z,35.08
2023-02-08T23:31:45.931Z,36.15
2023-02-08T23:34:12.745Z,35.78
2023-02-08T23:36:39.447Z,36.78
2023-02-08T23:39:06.197Z,37.28
2023-02-08T23:41:32.989Z,36.95
2023-02-08T23:43:59.802Z,38.03
2023-02-08T23:46:26.631Z,36.00
2023-02-08T23:48:53.376Z,36.10
2023-02-08T23:51:20.084Z,41.25
2023-02-08T23:53:46.830Z,35.33
2023-02-08T23:56:13.527Z,35.38
2023-02-08T23:58:40.239Z,36.13
